createdAt,value
2017-09-05T00:00:35.533Z,96.20
2017-09-05T00:03:10.192Z,96.20
2017-09-05T00:05:38.144Z,96.10
2017-09-05T00:08:06.572Z,96.20
2017-09-05T00:10:35.615Z,96.30
2017-09-05T00:13:14.803Z,96.50
2017-09-05T00:15:57.194Z,96.50
2017-09-05T00:18:42.221Z,96.30
2017-09-05T00:21:10.209Z,96.10
2017-09-05T00:23:37.715Z,96.00
2017-09-05T00:26:06.110Z,95.80
2017-09-05T00:28:34.140Z,95.60
2017-09-05T00:31:01.672Z,95.90
2017-09-05T00:33:32.707Z,96.10
2017-09-05T00:36:00.251Z,96.00
2017-09-05T00:38:27.796Z,96.10
2017-09-05T00:40:55.295Z,96.20
2017-09-05T00:43:23.647Z,96.20
2017-09-05T00:45:51.241Z,96.20
2017-09-05T00:48:19.117Z,96.20
2017-09-05T00:50:46.623Z,96.30
2017-09-05T00:53:14.179Z,96.40
2017-09-05T00:55:41.759Z,96.60
2017-09-05T00:58:10.051Z,96.70
2017-09-05T01:00:37.571Z,96.70
2017-09-05T01:03:05.553Z,96.70
2017-09-05T01:05:33.107Z,96.90
2017-09-05T01:08:00.622Z,97.00
2017-09-05T01:10:29.344Z,97.00
2017-09-05T01:12:56.851Z,97.00
2017-09-05T01:15:24.351Z,97.00
2017-09-05T01:17:52.563Z,97.20
2017-09-05T01:20:20.874Z,97.30
2017-09-05T01:22:49.203Z,97.30
2017-09-05T01:25:17.471Z,97.20
2017-09-05T01:27:45.772Z,97.20
2017-09-05T01:30:14.063Z,97.40
2017-09-05T01:32:41.603Z,97.30
2017-09-05T01:35:12.415Z,97.30
2017-09-05T01:37:40.683Z,96.80
2017-09-05T01:40:09.954Z,95.80
2017-09-05T01:42:37.487Z,95.80
2017-09-05T01:45:05.907Z,96.50
2017-09-05T01:47:33.464Z,96.20
2017-09-05T01:50:00.975Z,96.40
2017-09-05T01:52:28.563Z,96.60
2017-09-05T01:54:56.076Z,96.70
2017-09-05T01:57:23.647Z,96.70
2017-09-05T01:59:51.193Z,96.60
2017-09-05T02:02:19.055Z,96.60
2017-09-05T02:04:50.853Z,96.70
2017-09-05T02:07:20.119Z,97.10
2017-09-05T02:09:47.644Z,97.00
2017-09-05T02:12:15.160Z,97.10
2017-09-05T02:14:42.715Z,97.30
2017-09-05T02:17:10.797Z,97.30
2017-09-05T02:19:38.320Z,97.40
2017-09-05T02:22:05.871Z,97.40
2017-09-05T02:24:34.396Z,97.40
2017-09-05T02:27:01.953Z,97.50
2017-09-05T02:29:29.508Z,97.40
2017-09-05T02:31:57.800Z,97.50
2017-09-05T02:34:25.720Z,97.40
2017-09-05T02:36:53.234Z,97.50
2017-09-05T02:39:20.796Z,97.50
2017-09-05T02:41:49.092Z,98.00
2017-09-05T02:44:16.695Z,98.00
2017-09-05T02:46:44.244Z,98.00
2017-09-05T02:49:11.752Z,98.00
2017-09-05T02:51:39.323Z,98.10
2017-09-05T02:54:06.840Z,98.10
2017-09-05T02:56:35.011Z,98.10
2017-09-05T02:59:02.524Z,98.00
2017-09-05T03:01:30.548Z,98.00
2017-09-05T03:03:58.119Z,98.10
2017-09-05T03:06:25.671Z,98.10
2017-09-05T03:08:53.196Z,98.10
2017-09-05T03:11:20.702Z,98.00
2017-09-05T03:13:48.203Z,98.00
2017-09-05T03:16:15.784Z,98.00
2017-09-05T03:18:43.828Z,98.10
2017-09-05T03:21:14.579Z,98.30
2017-09-05T03:23:42.101Z,98.20
2017-09-05T03:26:09.644Z,98.00
2017-09-05T03:28:37.246Z,98.10
2017-09-05T03:31:04.780Z,97.90
2017-09-05T03:33:32.340Z,98.10
2017-09-05T03:36:03.073Z,98.10
2017-09-05T03:38:30.623Z,98.20
2017-09-05T03:40:58.216Z,98.40
2017-09-05T03:43:25.755Z,98.50
2017-09-05T03:45:53.313Z,98.50
2017-09-05T03:48:20.828Z,98.20
2017-09-05T03:50:48.335Z,97.70
2017-09-05T03:53:15.872Z,97.60
2017-09-05T03:55:43.430Z,97.50
2017-09-05T03:58:11.583Z,97.70
2017-09-05T04:00:39.116Z,98.10
2017-09-05T04:03:06.621Z,97.90
2017-09-05T04:05:34.127Z,97.80
2017-09-05T04:08:01.707Z,97.80
2017-09-05T04:10:29.490Z,98.00
2017-09-05T04:12:57.068Z,97.90
2017-09-05T04:15:24.844Z,97.90
2017-09-05T04:17:53.232Z,97.90
2017-09-05T04:20:20.775Z,97.90
2017-09-05T04:22:48.286Z,97.90
2017-09-05T04:25:15.816Z,98.00
2017-09-05T04:27:44.316Z,98.00
2017-09-05T04:30:11.899Z,98.10
2017-09-05T04:32:39.533Z,98.30
2017-09-05T04:35:07.808Z,98.30
2017-09-05T04:37:39.926Z,98.20
2017-09-05T04:40:08.379Z,98.20
2017-09-05T04:42:35.937Z,97.80
2017-09-05T04:45:04.566Z,97.60
2017-09-05T04:47:32.468Z,97.60
2017-09-05T04:49:59.994Z,97.60
2017-09-05T04:52:27.524Z,97.60
2017-09-05T04:54:56.684Z,97.60
2017-09-05T04:57:24.256Z,97.80
2017-09-05T04:59:51.799Z,97.80
2017-09-05T05:02:20.111Z,97.60
2017-09-05T05:04:47.639Z,97.60
2017-09-05T05:07:15.221Z,97.60
2017-09-05T05:09:42.759Z,97.50
2017-09-05T05:12:10.280Z,97.60
2017-09-05T05:14:37.824Z,97.50
2017-09-05T05:17:05.393Z,97.50
2017-09-05T05:19:33.064Z,97.40
2017-09-05T05:22:01.450Z,97.50
2017-09-05T05:24:29.011Z,97.10
2017-09-05T05:26:56.558Z,97.00
2017-09-05T05:29:24.528Z,97.00
2017-09-05T05:31:52.044Z,96.20
2017-09-05T05:34:20.378Z,96.20
2017-09-05T05:36:47.927Z,95.90
2017-09-05T05:39:15.430Z,95.60
2017-09-05T05:41:43.025Z,95.20
2017-09-05T05:44:10.527Z,95.50
2017-09-05T05:46:38.575Z,94.20
2017-09-05T05:49:06.125Z,94.70
2017-09-05T05:51:34.316Z,93.90
2017-09-05T05:54:05.083Z,93.50
2017-09-05T05:56:32.593Z,93.50
2017-09-05T05:59:00.124Z,93.40
2017-09-05T06:01:27.656Z,93.40
2017-09-05T06:03:55.191Z,93.20
2017-09-05T06:06:22.696Z,93.30
2017-09-05T06:08:50.201Z,92.60
2017-09-05T06:11:18.291Z,92.60
2017-09-05T06:13:45.810Z,92.10
2017-09-05T06:16:13.373Z,91.90
2017-09-05T06:18:40.891Z,92.20
2017-09-05T06:21:08.397Z,91.90
2017-09-05T06:23:43.436Z,91.80
2017-09-05T06:26:10.956Z,92.10
2017-09-05T06:28:39.427Z,91.60
2017-09-05T06:31:06.972Z,91.60
2017-09-05T06:33:34.481Z,91.50
2017-09-05T06:36:02.727Z,92.20
2017-09-05T06:38:30.231Z,91.70
2017-09-05T06:40:57.816Z,91.50
2017-09-05T06:43:25.347Z,90.80
2017-09-05T06:45:52.915Z,91.30
2017-09-05T06:48:20.472Z,91.50
2017-09-05T06:50:48.033Z,91.70
2017-09-05T06:53:18.031Z,91.80
2017-09-05T06:55:48.961Z,91.80
2017-09-05T06:58:16.691Z,91.90
2017-09-05T07:00:48.440Z,91.80
2017-09-05T07:03:15.959Z,91.00
2017-09-05T07:05:43.463Z,90.30
2017-09-05T07:08:11.435Z,89.30
2017-09-05T07:10:39.511Z,89.50
2017-09-05T07:13:07.067Z,89.20
2017-09-05T07:15:34.579Z,89.60
2017-09-05T07:18:02.121Z,88.70
2017-09-05T07:20:30.424Z,82.90
2017-09-05T07:22:57.973Z,80.80
2017-09-05T07:25:32.855Z,80.80
2017-09-05T07:28:01.302Z,80.60
2017-09-05T07:30:28.815Z,80.60
2017-09-05T07:32:56.396Z,81.00
2017-09-05T07:35:23.976Z,81.10
2017-09-05T07:37:52.253Z,80.40
2017-09-05T07:40:20.344Z,80.30
2017-09-05T07:42:47.856Z,81.50
2017-09-05T07:45:15.399Z,81.90
2017-09-05T07:47:42.907Z,82.10
2017-09-05T07:50:10.489Z,82.90
2017-09-05T07:52:38.043Z,83.80
2017-09-05T07:55:05.547Z,83.30
2017-09-05T07:57:34.015Z,81.80
2017-09-05T08:00:01.519Z,80.20
2017-09-05T08:02:29.036Z,79.70
2017-09-05T08:04:57.267Z,80.00
2017-09-05T08:07:24.809Z,79.30
2017-09-05T08:09:52.934Z,77.80
2017-09-05T08:12:20.499Z,76.00
2017-09-05T08:14:48.025Z,73.20
2017-09-05T08:17:15.554Z,71.60
2017-09-05T08:19:43.843Z,70.60
2017-09-05T08:22:13.103Z,71.00
2017-09-05T08:24:40.615Z,70.90
2017-09-05T08:27:08.157Z,72.00
2017-09-05T08:29:35.773Z,70.40
2017-09-05T08:32:03.716Z,70.50
2017-09-05T08:34:31.302Z,67.60
2017-09-05T08:36:58.947Z,66.90
2017-09-05T08:39:26.471Z,63.30
2017-09-05T08:41:54.043Z,58.20
2017-09-05T08:44:21.550Z,53.70
2017-09-05T08:46:49.075Z,54.80
2017-09-05T08:49:17.757Z,55.00
2017-09-05T08:51:45.284Z,55.10
2017-09-05T08:54:12.813Z,54.30
2017-09-05T08:56:40.336Z,54.00
2017-09-05T08:59:07.877Z,56.60
2017-09-05T09:01:35.554Z,58.00
2017-09-05T09:04:04.000Z,60.70
2017-09-05T09:06:31.528Z,63.30
2017-09-05T09:08:59.265Z,62.90
2017-09-05T09:11:31.360Z,64.90
2017-09-05T09:13:58.871Z,68.10
2017-09-05T09:16:27.205Z,72.40
2017-09-05T09:18:55.683Z,72.40
2017-09-05T09:21:23.673Z,74.80
2017-09-05T09:23:51.178Z,74.90
2017-09-05T09:26:19.459Z,72.30
2017-09-05T09:28:47.467Z,72.30
2017-09-05T09:31:15.021Z,72.70
2017-09-05T09:33:43.401Z,72.60
2017-09-05T09:36:10.903Z,72.60
2017-09-05T09:38:38.429Z,73.50
2017-09-05T09:41:05.956Z,75.10
2017-09-05T09:43:33.452Z,75.70
2017-09-05T09:46:01.655Z,72.00
2017-09-05T09:48:29.215Z,68.20
2017-09-05T09:50:57.887Z,67.20
2017-09-05T09:53:26.312Z,65.40
2017-09-05T09:55:53.843Z,63.90
2017-09-05T09:58:21.352Z,63.20
2017-09-05T10:00:49.329Z,65.30
2017-09-05T10:03:16.832Z,65.10
2017-09-05T10:05:44.390Z,62.90
2017-09-05T10:08:11.967Z,62.70
2017-09-05T10:10:40.105Z,60.80
2017-09-05T10:13:08.524Z,59.90
2017-09-05T10:15:36.024Z,58.00
2017-09-05T10:18:03.619Z,56.50
2017-09-05T10:20:31.139Z,52.80
2017-09-05T10:22:59.951Z,51.10
2017-09-05T10:25:27.464Z,50.30
2017-09-05T10:27:54.972Z,50.10
2017-09-05T10:30:22.480Z,50.50
2017-09-05T10:32:51.446Z,52.10
2017-09-05T10:35:18.960Z,52.00
2017-09-05T10:37:46.502Z,52.20
2017-09-05T10:40:14.023Z,50.90
2017-09-05T10:42:41.531Z,52.20
2017-09-05T10:45:09.056Z,52.10
2017-09-05T10:47:36.624Z,53.20
2017-09-05T10:50:04.134Z,55.50
2017-09-05T10:52:33.067Z,56.60
2017-09-05T10:55:01.119Z,56.60
2017-09-05T10:57:28.649Z,57.60
2017-09-05T10:59:56.636Z,58.20
2017-09-05T11:02:24.154Z,59.20
2017-09-05T11:04:52.035Z,59.90
2017-09-05T11:07:19.575Z,59.00
2017-09-05T11:09:47.111Z,59.80
2017-09-05T11:12:14.641Z,61.60
2017-09-05T11:14:46.081Z,61.90
2017-09-05T11:17:13.619Z,61.20
2017-09-05T11:19:41.183Z,62.50
2017-09-05T11:22:08.695Z,61.00
2017-09-05T11:24:36.200Z,61.90
2017-09-05T11:27:03.746Z,62.70
2017-09-05T11:29:31.270Z,63.50
2017-09-05T11:31:58.796Z,63.60
2017-09-05T11:34:26.373Z,64.20
2017-09-05T11:36:55.469Z,63.80
2017-09-05T11:39:23.016Z,63.80
2017-09-05T11:41:50.568Z,64.00
2017-09-05T11:44:22.026Z,65.30
2017-09-05T11:46:49.586Z,65.60
2017-09-05T11:49:17.089Z,64.30
2017-09-05T11:51:44.628Z,62.60
2017-09-05T11:54:12.180Z,61.80
2017-09-05T11:56:39.712Z,60.80
2017-09-05T11:59:10.774Z,59.40
2017-09-05T12:01:40.056Z,58.40
2017-09-05T12:04:07.600Z,58.40
2017-09-05T12:06:35.244Z,58.40
2017-09-05T12:09:03.783Z,56.20
2017-09-05T12:11:32.273Z,56.80
2017-09-05T12:13:59.787Z,56.00
2017-09-05T12:16:27.324Z,55.80
2017-09-05T12:18:54.859Z,51.70
2017-09-05T12:21:22.772Z,46.60
2017-09-05T12:23:51.185Z,42.90
2017-09-05T12:26:18.712Z,39.50
2017-09-05T12:28:46.241Z,38.70
2017-09-05T12:31:13.760Z,43.60
2017-09-05T12:33:41.671Z,46.00
2017-09-05T12:36:09.171Z,49.40
2017-09-05T12:38:36.686Z,51.40
2017-09-05T12:41:05.236Z,53.80
2017-09-05T12:43:32.779Z,52.20
2017-09-05T12:46:00.717Z,52.50
2017-09-05T12:48:28.248Z,51.90
2017-09-05T12:50:55.765Z,52.10
2017-09-05T12:53:23.293Z,51.00
2017-09-05T12:55:50.857Z,53.30
2017-09-05T12:58:18.382Z,51.10
2017-09-05T13:00:46.845Z,54.80
2017-09-05T13:03:14.645Z,55.40
2017-09-05T13:05:42.889Z,53.70
2017-09-05T13:08:10.408Z,53.30
2017-09-05T13:10:37.919Z,53.00
2017-09-05T13:13:05.429Z,53.20
2017-09-05T13:15:34.640Z,53.10
2017-09-05T13:18:02.580Z,53.10
2017-09-05T13:20:30.175Z,54.80
2017-09-05T13:22:59.689Z,55.70
2017-09-05T13:25:27.206Z,55.70
2017-09-05T13:27:54.727Z,57.80
2017-09-05T13:30:23.049Z,57.80
2017-09-05T13:32:51.343Z,60.90
2017-09-05T13:35:18.851Z,60.80
2017-09-05T13:37:46.872Z,60.30
2017-09-05T13:40:14.401Z,60.40
2017-09-05T13:42:42.465Z,60.40
2017-09-05T13:45:10.035Z,62.70
2017-09-05T13:47:37.544Z,64.70
2017-09-05T13:50:05.080Z,66.80
2017-09-05T13:52:32.604Z,66.40
2017-09-05T13:55:00.150Z,65.50
2017-09-05T13:57:28.446Z,65.80
2017-09-05T13:59:56.136Z,66.00
2017-09-05T14:02:23.641Z,65.20
2017-09-05T14:04:51.159Z,66.00
2017-09-05T14:07:19.436Z,66.50
2017-09-05T14:09:46.960Z,66.90
2017-09-05T14:12:15.409Z,65.00
2017-09-05T14:14:42.929Z,64.60
2017-09-05T14:17:11.378Z,65.20
2017-09-05T14:19:39.824Z,65.20
2017-09-05T14:22:07.345Z,66.60
2017-09-05T14:24:35.692Z,65.40
2017-09-05T14:27:03.861Z,66.80
2017-09-05T14:29:31.593Z,66.40
2017-09-05T14:31:59.172Z,66.20
2017-09-05T14:34:26.717Z,66.70
2017-09-05T14:36:54.247Z,67.70
2017-09-05T14:39:21.766Z,66.50
2017-09-05T14:41:49.271Z,67.90
2017-09-05T14:44:17.478Z,68.20
2017-09-05T14:46:45.016Z,69.40
2017-09-05T14:49:14.504Z,70.60
2017-09-05T14:51:42.092Z,70.60
2017-09-05T14:54:09.602Z,69.00
2017-09-05T14:56:37.111Z,69.00
2017-09-05T14:59:05.452Z,69.80
2017-09-05T15:01:32.960Z,69.70
2017-09-05T15:04:00.492Z,68.70
2017-09-05T15:06:28.020Z,68.30
2017-09-05T15:08:56.450Z,70.20
2017-09-05T15:11:23.955Z,71.50
2017-09-05T15:13:51.520Z,70.80
2017-09-05T15:16:19.039Z,73.90
2017-09-05T15:18:46.825Z,72.10
2017-09-05T15:21:15.307Z,71.40
2017-09-05T15:23:42.882Z,71.70
2017-09-05T15:26:10.390Z,71.70
2017-09-05T15:28:37.940Z,72.60
2017-09-05T15:31:07.141Z,73.60
2017-09-05T15:33:34.873Z,74.50
2017-09-05T15:36:02.447Z,73.30
2017-09-05T15:38:30.032Z,73.60
2017-09-05T15:40:57.547Z,74.70
2017-09-05T15:43:25.260Z,75.60
2017-09-05T15:45:54.469Z,75.20
2017-09-05T15:48:21.991Z,75.10
2017-09-05T15:50:49.495Z,72.60
2017-09-05T15:53:18.943Z,74.60
2017-09-05T15:55:47.403Z,74.60
2017-09-05T15:58:14.939Z,74.90
2017-09-05T16:00:43.047Z,75.70
2017-09-05T16:03:10.563Z,76.80
2017-09-05T16:05:38.067Z,77.80
2017-09-05T16:08:05.579Z,80.90
2017-09-05T16:10:33.083Z,80.50
2017-09-05T16:13:00.587Z,81.70
2017-09-05T16:15:28.264Z,82.50
2017-09-05T16:17:57.462Z,83.30
2017-09-05T16:20:25.041Z,83.20
2017-09-05T16:22:52.661Z,84.70
2017-09-05T16:25:20.177Z,81.50
2017-09-05T16:27:47.721Z,80.60
2017-09-05T16:30:16.040Z,80.20
2017-09-05T16:32:43.539Z,80.70
2017-09-05T16:35:11.744Z,81.00
2017-09-05T16:37:39.293Z,82.10
2017-09-05T16:40:07.780Z,83.40
2017-09-05T16:42:35.560Z,83.80
2017-09-05T16:45:03.330Z,84.80
2017-09-05T16:47:31.000Z,84.00
2017-09-05T16:49:58.799Z,84.30
2017-09-05T16:52:26.324Z,84.70
2017-09-05T16:54:54.244Z,84.80
2017-09-05T16:57:21.963Z,84.60
2017-09-05T16:59:49.470Z,84.40
2017-09-05T17:02:17.048Z,84.80
2017-09-05T17:04:44.600Z,85.00
2017-09-05T17:07:12.791Z,85.40
2017-09-05T17:09:40.382Z,85.90
2017-09-05T17:12:08.141Z,86.40
2017-09-05T17:14:35.712Z,86.80
2017-09-05T17:17:03.285Z,87.10
2017-09-05T17:19:32.454Z,87.30
2017-09-05T17:22:00.151Z,87.40
2017-09-05T17:24:28.321Z,87.50
2017-09-05T17:26:55.896Z,88.20
2017-09-05T17:29:23.508Z,88.40
2017-09-05T17:31:51.669Z,89.10
2017-09-05T17:34:19.438Z,89.90
2017-09-05T17:36:49.250Z,90.40
2017-09-05T17:39:16.862Z,90.70
2017-09-05T17:41:44.571Z,91.00
2017-09-05T17:44:12.276Z,91.00
2017-09-05T17:46:39.909Z,90.80
2017-09-05T17:49:07.659Z,91.40
2017-09-05T17:51:35.531Z,91.50
2017-09-05T17:54:03.176Z,91.30
2017-09-05T17:56:30.690Z,91.70
2017-09-05T17:58:58.407Z,91.60
2017-09-05T18:01:26.170Z,91.80
2017-09-05T18:03:55.506Z,92.00
2017-09-05T18:06:27.732Z,92.00
2017-09-05T18:08:55.316Z,91.80
2017-09-05T18:11:23.216Z,92.40
2017-09-05T18:13:50.789Z,92.70
2017-09-05T18:16:18.489Z,92.20
2017-09-05T18:18:46.028Z,92.40
2017-09-05T18:21:15.176Z,91.90
2017-09-05T18:23:42.911Z,91.90
2017-09-05T18:26:11.408Z,91.90
2017-09-05T18:28:40.102Z,92.10
2017-09-05T18:31:07.718Z,92.00
2017-09-05T18:33:35.288Z,91.60
2017-09-05T18:36:07.274Z,91.50
2017-09-05T18:38:35.643Z,92.10
2017-09-05T18:41:04.985Z,92.30
2017-09-05T18:43:32.562Z,92.30
2017-09-05T18:46:00.145Z,93.20
2017-09-05T18:48:27.850Z,93.30
2017-09-05T18:50:58.006Z,93.40
2017-09-05T18:53:26.804Z,93.20
2017-09-05T18:55:55.301Z,93.30
2017-09-05T18:58:22.847Z,93.30
2017-09-05T19:00:50.363Z,93.10
2017-09-05T19:03:19.431Z,92.90
2017-09-05T19:05:47.002Z,92.80
2017-09-05T19:08:15.356Z,92.90
2017-09-05T19:10:43.218Z,92.90
2017-09-05T19:13:10.782Z,93.60
2017-09-05T19:15:38.499Z,93.80
2017-09-05T19:18:06.207Z,93.40
2017-09-05T19:20:33.773Z,93.40
2017-09-05T19:23:01.488Z,93.80
2017-09-05T19:25:29.052Z,93.90
2017-09-05T19:27:57.060Z,94.30
2017-09-05T19:30:24.748Z,94.10
2017-09-05T19:32:52.489Z,94.50
2017-09-05T19:35:21.065Z,94.40
2017-09-05T19:37:48.615Z,94.60
2017-09-05T19:40:16.307Z,94.50
2017-09-05T19:42:44.009Z,94.60
2017-09-05T19:45:11.751Z,94.40
2017-09-05T19:47:39.455Z,94.60
2017-09-05T19:50:07.063Z,94.70
2017-09-05T19:52:35.536Z,94.70
2017-09-05T19:55:03.131Z,94.70
2017-09-05T19:57:31.523Z,95.10
2017-09-05T19:59:59.937Z,95.10
2017-09-05T20:02:27.600Z,95.00
2017-09-05T20:04:55.333Z,95.00
2017-09-05T20:07:23.782Z,94.50
2017-09-05T20:09:51.572Z,94.50
2017-09-05T20:12:19.866Z,94.60
2017-09-05T20:14:47.417Z,95.00
2017-09-05T20:17:15.093Z,95.20
2017-09-05T20:19:44.328Z,95.30
2017-09-05T20:22:11.896Z,95.30
2017-09-05T20:24:39.558Z,95.50
2017-09-05T20:27:07.123Z,95.40
2017-09-05T20:29:34.800Z,95.20
2017-09-05T20:32:02.712Z,95.30
2017-09-05T20:34:30.476Z,95.40
2017-09-05T20:36:58.210Z,95.40
2017-09-05T20:39:25.784Z,95.30
2017-09-05T20:41:57.013Z,95.30
2017-09-05T20:44:25.507Z,95.70
2017-09-05T20:46:53.790Z,95.80
2017-09-05T20:49:21.370Z,95.80
2017-09-05T20:51:48.943Z,95.80
2017-09-05T20:54:17.074Z,96.10
2017-09-05T20:56:46.063Z,96.20
2017-09-05T20:59:14.416Z,96.20
2017-09-05T21:01:41.936Z,96.10
2017-09-05T21:04:09.522Z,96.10
2017-09-05T21:06:37.660Z,96.30
2017-09-05T21:09:05.168Z,96.40
2017-09-05T21:11:35.907Z,96.70
2017-09-05T21:14:03.483Z,96.60
2017-09-05T21:16:31.040Z,96.60
2017-09-05T21:18:58.684Z,96.70
2017-09-05T21:21:26.946Z,96.70
2017-09-05T21:23:54.479Z,96.70
2017-09-05T21:26:26.563Z,96.60
2017-09-05T21:28:54.159Z,96.60
2017-09-05T21:31:21.697Z,96.50
2017-09-05T21:33:49.336Z,96.40
2017-09-05T21:36:16.948Z,96.30
2017-09-05T21:38:48.390Z,96.30
2017-09-05T21:41:15.961Z,96.20
2017-09-05T21:43:43.474Z,96.10
2017-09-05T21:46:11.034Z,96.20
2017-09-05T21:48:38.611Z,96.00
2017-09-05T21:51:06.224Z,96.10
2017-09-05T21:53:35.165Z,96.20
2017-09-05T21:56:02.676Z,96.30
2017-09-05T21:58:31.168Z,96.10
2017-09-05T22:00:58.855Z,96.10
2017-09-05T22:03:27.063Z,96.10
2017-09-05T22:05:55.419Z,96.10
2017-09-05T22:08:23.871Z,96.20
2017-09-05T22:10:51.828Z,96.40
2017-09-05T22:13:19.346Z,96.30
2017-09-05T22:15:46.851Z,96.40
2017-09-05T22:18:20.824Z,96.10
2017-09-05T22:20:55.211Z,96.10
2017-09-05T22:23:22.723Z,96.10
2017-09-05T22:25:55.780Z,96.20
2017-09-05T22:28:28.874Z,96.20
2017-09-05T22:30:56.379Z,96.50
2017-09-05T22:33:23.895Z,96.30
2017-09-05T22:35:51.430Z,96.40
2017-09-05T22:38:18.935Z,96.30
2017-09-05T22:40:46.443Z,96.40
2017-09-05T22:43:13.960Z,96.40
2017-09-05T22:45:41.475Z,96.50
2017-09-05T22:48:09.803Z,96.50
2017-09-05T22:50:37.323Z,96.60
2017-09-05T22:53:04.848Z,96.50
2017-09-05T22:55:32.402Z,96.60
2017-09-05T22:57:59.952Z,96.60
2017-09-05T23:00:27.464Z,96.60
2017-09-05T23:02:55.009Z,96.60
2017-09-05T23:05:23.195Z,96.70
2017-09-05T23:07:50.745Z,96.70
2017-09-05T23:10:18.264Z,96.80
2017-09-05T23:12:45.774Z,96.70
2017-09-05T23:15:13.332Z,96.70
2017-09-05T23:17:40.847Z,96.80
2017-09-05T23:20:08.383Z,96.60
2017-09-05T23:22:35.908Z,96.80
2017-09-05T23:25:03.495Z,96.70
2017-09-05T23:27:31.675Z,96.70
2017-09-05T23:29:59.220Z,96.70
2017-09-05T23:32:26.724Z,96.90
2017-09-05T23:34:54.309Z,97.00
2017-09-05T23:37:22.067Z,96.90
2017-09-05T23:39:50.508Z,97.30
2017-09-05T23:42:18.021Z,97.40
2017-09-05T23:44:45.554Z,96.90
2017-09-05T23:47:13.818Z,97.10
2017-09-05T23:49:42.143Z,97.30
2017-09-05T23:52:09.673Z,97.30
2017-09-05T23:54:37.986Z,98.00
2017-09-05T23:57:05.506Z,97.90
2017-09-05T23:59:34.730Z,98.00
